createdAt,value
2019-03-20T00:01:45.689Z,82.85
2019-03-20T00:04:12.176Z,84.85
2019-03-20T00:06:41.394Z,81.05
2019-03-20T00:09:08.008Z,82.62
2019-03-20T00:11:34.543Z,82.90
2019-03-20T00:14:01.252Z,82.95
2019-03-20T00:16:27.546Z,83.80
2019-03-20T00:18:54.062Z,65.78
2019-03-20T00:21:20.455Z,66.87
2019-03-20T00:23:46.797Z,74.37
2019-03-20T00:26:13.303Z,67.95
2019-03-20T00:28:39.799Z,64.40
2019-03-20T00:31:06.370Z,64.15
2019-03-20T00:33:32.768Z,67.95
2019-03-20T00:35:59.362Z,68.95
2019-03-20T00:38:25.892Z,65.25
2019-03-20T00:40:52.306Z,59.20
2019-03-20T00:43:18.800Z,56.23
2019-03-20T00:45:45.206Z,58.90
2019-03-20T00:48:11.503Z,58.63
2019-03-20T00:50:38.346Z,65.90
2019-03-20T00:53:04.857Z,63.65
2019-03-20T00:55:31.656Z,63.55
2019-03-20T00:57:57.959Z,59.40
2019-03-20T01:00:24.946Z,55.75
2019-03-20T01:02:51.747Z,52.17
2019-03-20T01:05:19.745Z,49.42
2019-03-20T01:07:46.128Z,51.37
2019-03-20T01:10:23.437Z,52.17
2019-03-20T01:12:50.328Z,52.75
2019-03-20T01:15:17.081Z,50.63
2019-03-20T01:17:44.388Z,46.85
2019-03-20T01:20:17.491Z,48.55
2019-03-20T01:22:43.877Z,47.67
2019-03-20T01:25:10.566Z,48.60
2019-03-20T01:27:37.098Z,48.55
2019-03-20T01:30:08.501Z,47.88
2019-03-20T01:32:34.924Z,50.60
2019-03-20T01:35:01.425Z,50.40
2019-03-20T01:37:28.039Z,52.80
2019-03-20T01:39:54.428Z,55.00
2019-03-20T01:42:21.135Z,52.80
2019-03-20T01:44:47.725Z,56.42
2019-03-20T01:47:14.158Z,51.85
2019-03-20T01:49:40.595Z,53.58
2019-03-20T01:52:07.191Z,54.50
2019-03-20T01:54:33.819Z,60.20
2019-03-20T01:57:00.374Z,63.23
2019-03-20T01:59:26.775Z,60.35
2019-03-20T02:01:53.383Z,56.80
2019-03-20T02:04:19.776Z,51.60
2019-03-20T02:06:46.312Z,52.70
2019-03-20T02:09:12.703Z,53.45
2019-03-20T02:11:39.509Z,49.58
2019-03-20T02:14:05.942Z,51.18
2019-03-20T02:16:32.518Z,54.13
2019-03-20T02:18:58.815Z,52.83
2019-03-20T02:21:25.552Z,53.10
2019-03-20T02:23:52.039Z,50.85
2019-03-20T02:26:18.448Z,50.88
2019-03-20T02:28:44.955Z,52.98
2019-03-20T02:31:11.486Z,55.52
2019-03-20T02:33:37.871Z,49.25
2019-03-20T02:36:04.441Z,44.98
2019-03-20T02:38:30.828Z,47.50
2019-03-20T02:40:57.227Z,47.10
2019-03-20T02:43:23.985Z,47.88
2019-03-20T02:45:50.500Z,49.30
2019-03-20T02:48:17.027Z,47.70
2019-03-20T02:50:43.460Z,52.55
2019-03-20T02:53:09.790Z,51.48
2019-03-20T02:55:36.803Z,54.03
2019-03-20T02:58:03.739Z,55.48
2019-03-20T03:00:30.323Z,58.63
2019-03-20T03:02:56.715Z,56.65
2019-03-20T03:05:23.441Z,57.55
2019-03-20T03:07:49.828Z,58.73
2019-03-20T03:10:17.002Z,59.08
2019-03-20T03:12:43.727Z,61.92
2019-03-20T03:15:12.167Z,60.45
2019-03-20T03:17:39.137Z,64.10
2019-03-20T03:20:09.672Z,61.92
2019-03-20T03:22:36.127Z,59.55
2019-03-20T03:25:06.730Z,60.10
2019-03-20T03:27:33.376Z,60.52
2019-03-20T03:29:59.896Z,59.98
2019-03-20T03:32:26.601Z,56.48
2019-03-20T03:34:52.986Z,57.67
2019-03-20T03:37:19.840Z,50.95
2019-03-20T03:39:46.369Z,44.95
2019-03-20T03:42:12.973Z,42.53
2019-03-20T03:44:39.609Z,41.18
2019-03-20T03:47:06.002Z,42.80
2019-03-20T03:49:32.298Z,45.88
2019-03-20T03:51:58.856Z,45.75
2019-03-20T03:54:25.468Z,49.55
2019-03-20T03:56:53.024Z,51.85
2019-03-20T03:59:19.331Z,48.50
2019-03-20T04:01:45.837Z,52.65
2019-03-20T04:04:12.258Z,51.33
2019-03-20T04:06:38.955Z,43.65
2019-03-20T04:09:06.160Z,40.63
2019-03-20T04:11:32.556Z,41.00
2019-03-20T04:13:59.600Z,37.65
2019-03-20T04:16:26.140Z,39.60
2019-03-20T04:18:53.067Z,42.73
2019-03-20T04:21:19.918Z,34.38
2019-03-20T04:23:46.435Z,35.45
2019-03-20T04:26:12.822Z,34.65
2019-03-20T04:28:39.167Z,35.30
2019-03-20T04:31:05.588Z,36.95
2019-03-20T04:33:32.690Z,38.55
2019-03-20T04:35:59.162Z,36.93
2019-03-20T04:38:25.595Z,37.30
2019-03-20T04:40:51.911Z,36.95
2019-03-20T04:43:18.450Z,36.38
2019-03-20T04:45:44.957Z,39.45
2019-03-20T04:48:11.594Z,37.42
2019-03-20T04:50:38.102Z,37.38
2019-03-20T04:53:04.873Z,36.68
2019-03-20T04:55:31.359Z,37.35
2019-03-20T04:57:57.801Z,35.83
2019-03-20T05:00:24.229Z,35.05
2019-03-20T05:02:50.752Z,33.45
2019-03-20T05:05:17.339Z,34.33
2019-03-20T05:07:43.862Z,34.08
2019-03-20T05:10:16.456Z,33.10
2019-03-20T05:12:42.983Z,31.90
2019-03-20T05:15:11.782Z,32.00
2019-03-20T05:17:38.621Z,30.17
2019-03-20T05:20:10.416Z,29.18
2019-03-20T05:22:36.934Z,30.00
2019-03-20T05:25:05.068Z,29.77
2019-03-20T05:27:32.016Z,30.43
2019-03-20T05:29:58.874Z,29.77
2019-03-20T05:32:25.368Z,30.12
2019-03-20T05:34:51.807Z,29.77
2019-03-20T05:37:18.287Z,31.48
2019-03-20T05:39:44.799Z,31.60
2019-03-20T05:42:11.314Z,30.75
2019-03-20T05:44:37.883Z,32.98
2019-03-20T05:47:04.384Z,32.40
2019-03-20T05:49:30.916Z,35.73
2019-03-20T05:51:57.486Z,34.98
2019-03-20T05:54:23.873Z,34.43
2019-03-20T05:56:50.475Z,38.92
2019-03-20T05:59:16.979Z,40.15
2019-03-20T06:01:43.409Z,40.83
2019-03-20T06:04:09.933Z,45.55
2019-03-20T06:06:36.535Z,46.18
2019-03-20T06:09:05.850Z,47.55
2019-03-20T06:11:32.256Z,51.18
2019-03-20T06:13:58.680Z,59.42
2019-03-20T06:16:25.379Z,54.03
2019-03-20T06:18:51.903Z,56.83
2019-03-20T06:21:18.570Z,57.17
2019-03-20T06:23:46.747Z,51.53
2019-03-20T06:26:13.158Z,58.85
2019-03-20T06:28:39.934Z,57.58
2019-03-20T06:31:06.507Z,57.62
2019-03-20T06:33:32.991Z,58.33
2019-03-20T06:35:59.320Z,59.40
2019-03-20T06:38:26.063Z,64.62
2019-03-20T06:40:52.497Z,66.45
2019-03-20T06:43:19.241Z,61.55
2019-03-20T06:45:45.872Z,56.02
2019-03-20T06:48:12.363Z,53.68
2019-03-20T06:50:39.075Z,48.13
2019-03-20T06:53:05.511Z,48.68
2019-03-20T06:55:31.834Z,40.45
2019-03-20T06:57:58.539Z,42.80
2019-03-20T07:00:55.293Z,43.55
2019-03-20T07:03:30.232Z,41.65
2019-03-20T07:06:26.638Z,39.27
2019-03-20T07:09:07.827Z,41.53
2019-03-20T07:11:37.966Z,39.33
2019-03-20T07:14:04.502Z,42.23
2019-03-20T07:16:30.928Z,49.33
2019-03-20T07:18:57.474Z,47.08
2019-03-20T07:21:24.062Z,43.20
2019-03-20T07:23:50.655Z,36.25
2019-03-20T07:26:17.099Z,34.25
2019-03-20T07:28:43.979Z,38.58
2019-03-20T07:31:15.375Z,42.25
2019-03-20T07:33:38.711Z,45.58
2019-03-20T07:36:05.360Z,43.87
2019-03-20T07:38:32.100Z,44.77
2019-03-20T07:40:58.739Z,43.13
2019-03-20T07:43:27.004Z,44.05
2019-03-20T07:45:53.552Z,42.70
2019-03-20T07:48:22.521Z,42.23
2019-03-20T07:50:48.397Z,43.05
2019-03-20T07:53:14.906Z,37.85
2019-03-20T07:55:41.519Z,40.52
2019-03-20T07:58:08.025Z,40.03
2019-03-20T08:00:34.911Z,38.88
2019-03-20T08:03:01.325Z,38.80
2019-03-20T08:05:29.392Z,38.25
2019-03-20T08:08:06.429Z,39.45
2019-03-20T08:10:24.620Z,41.18
2019-03-20T08:12:51.120Z,40.23
2019-03-20T08:15:17.772Z,37.50
2019-03-20T08:17:44.856Z,40.43
2019-03-20T08:20:15.794Z,44.27
2019-03-20T08:22:42.195Z,43.20
2019-03-20T08:25:09.136Z,41.77
2019-03-20T08:27:35.570Z,35.10
2019-03-20T08:30:05.080Z,34.63
2019-03-20T08:32:31.551Z,34.63
2019-03-20T08:34:58.183Z,30.35
2019-03-20T08:37:24.718Z,32.78
2019-03-20T08:39:51.252Z,32.48
2019-03-20T08:42:17.942Z,31.70
2019-03-20T08:44:44.608Z,35.30
2019-03-20T08:47:11.192Z,31.33
2019-03-20T08:49:37.801Z,27.00
2019-03-20T08:52:04.222Z,25.97
2019-03-20T08:54:30.618Z,23.52
2019-03-20T08:56:57.307Z,23.20
2019-03-20T08:59:23.895Z,23.60
2019-03-20T09:01:50.399Z,24.72
2019-03-20T09:04:16.814Z,21.65
2019-03-20T09:06:43.346Z,21.00
2019-03-20T09:09:09.857Z,16.15
2019-03-20T09:11:36.335Z,14.53
2019-03-20T09:14:03.587Z,16.35
2019-03-20T09:16:29.963Z,13.05
2019-03-20T09:18:56.387Z,11.95
2019-03-20T09:21:22.961Z,11.60
2019-03-20T09:23:49.390Z,12.50
2019-03-20T09:26:15.715Z,11.95
2019-03-20T09:28:42.161Z,12.35
2019-03-20T09:31:08.903Z,12.28
2019-03-20T09:33:35.315Z,13.25
2019-03-20T09:36:02.159Z,8.15
2019-03-20T09:38:28.558Z,6.92
2019-03-20T09:40:54.886Z,8.40
2019-03-20T09:43:21.276Z,6.47
2019-03-20T09:45:47.823Z,7.28
2019-03-20T09:48:14.347Z,8.25
2019-03-20T09:50:40.843Z,9.08
2019-03-20T09:53:07.516Z,8.55
2019-03-20T09:55:33.936Z,8.80
2019-03-20T09:58:10.920Z,9.15
2019-03-20T10:00:28.945Z,10.50
2019-03-20T10:02:55.478Z,12.13
2019-03-20T10:05:22.445Z,12.47
2019-03-20T10:07:49.092Z,10.93
2019-03-20T10:10:23.730Z,11.68
2019-03-20T10:12:50.578Z,9.30
2019-03-20T10:15:23.720Z,7.87
2019-03-20T10:17:50.199Z,8.43
2019-03-20T10:25:29.528Z,6.80
2019-03-20T10:27:56.695Z,7.55
2019-03-20T10:30:28.006Z,7.55
2019-03-20T10:32:54.502Z,7.87
2019-03-20T10:35:21.488Z,7.25
2019-03-20T10:37:48.186Z,8.33
2019-03-20T10:40:24.856Z,7.08
2019-03-20T10:42:51.602Z,7.92
2019-03-20T10:45:19.265Z,6.78
2019-03-20T10:47:46.509Z,7.15
2019-03-20T10:50:24.823Z,7.03
2019-03-20T10:52:51.562Z,7.78
2019-03-20T10:55:18.202Z,7.47
2019-03-20T10:57:44.858Z,7.65
2019-03-20T11:00:26.741Z,6.95
2019-03-20T11:02:53.578Z,8.03
2019-03-20T11:05:21.139Z,7.33
2019-03-20T11:07:48.288Z,6.85
2019-03-20T11:10:25.355Z,6.92
2019-03-20T11:12:52.516Z,7.45
2019-03-20T11:15:20.496Z,6.85
2019-03-20T11:17:47.336Z,6.95
2019-03-20T11:20:17.764Z,7.12
2019-03-20T11:22:45.727Z,7.62
2019-03-20T11:25:15.182Z,7.20
2019-03-20T11:27:41.866Z,8.78
2019-03-20T11:30:28.267Z,8.48
2019-03-20T11:35:21.852Z,7.83
2019-03-20T11:37:48.691Z,8.00
2019-03-20T11:40:31.512Z,8.18
2019-03-20T11:42:58.045Z,8.00
2019-03-20T11:45:25.199Z,8.68
2019-03-20T11:47:52.422Z,8.15
2019-03-20T11:50:38.957Z,8.23
2019-03-20T11:53:07.022Z,7.40
2019-03-20T11:55:34.332Z,7.50
2019-03-20T11:58:01.014Z,10.38
2019-03-20T12:00:27.963Z,15.00
2019-03-20T12:02:54.596Z,9.20
2019-03-20T12:05:21.235Z,8.18
2019-03-20T12:07:47.798Z,8.08
2019-03-20T12:10:25.264Z,8.93
2019-03-20T12:12:52.106Z,8.38
2019-03-20T12:15:19.054Z,8.88
2019-03-20T12:17:46.101Z,10.30
2019-03-20T12:20:24.208Z,8.45
2019-03-20T12:22:51.970Z,8.63
2019-03-20T12:25:29.258Z,7.30
2019-03-20T12:27:56.408Z,11.00
2019-03-20T12:30:26.998Z,13.32
2019-03-20T12:32:53.878Z,16.50
2019-03-20T12:35:22.031Z,20.32
2019-03-20T12:37:48.792Z,12.78
2019-03-20T12:40:24.630Z,8.55
2019-03-20T12:42:51.799Z,8.15
2019-03-20T12:45:34.613Z,9.93
2019-03-20T12:48:01.565Z,9.05
2019-03-20T12:50:28.610Z,8.18
2019-03-20T12:52:55.654Z,7.83
2019-03-20T12:55:22.275Z,8.13
2019-03-20T12:57:48.828Z,9.53
2019-03-20T13:00:27.420Z,13.40
2019-03-20T13:02:54.289Z,9.20
2019-03-20T13:05:21.232Z,9.95
2019-03-20T13:07:48.386Z,9.50
2019-03-20T13:10:22.087Z,9.10
2019-03-20T13:12:49.540Z,10.58
2019-03-20T13:15:23.340Z,9.25
2019-03-20T13:17:50.807Z,8.90
2019-03-20T13:20:17.749Z,10.35
2019-03-20T13:23:06.303Z,9.40
2019-03-20T13:25:33.040Z,8.00
2019-03-20T13:28:00.093Z,7.62
2019-03-20T13:30:35.206Z,7.67
2019-03-20T13:33:01.770Z,7.70
2019-03-20T13:35:28.605Z,6.87
2019-03-20T13:37:55.247Z,7.25
2019-03-20T13:40:21.881Z,8.63
2019-03-20T13:42:48.523Z,6.53
2019-03-20T13:45:24.001Z,6.95
2019-03-20T13:47:50.498Z,7.92
2019-03-20T13:50:17.035Z,8.40
2019-03-20T13:52:43.777Z,8.63
2019-03-20T13:55:16.360Z,8.93
2019-03-20T13:57:43.808Z,9.98
2019-03-20T14:00:25.397Z,10.43
2019-03-20T14:02:52.241Z,9.58
2019-03-20T14:05:18.872Z,9.90
2019-03-20T14:07:45.869Z,10.28
2019-03-20T14:10:24.953Z,10.48
2019-03-20T14:12:46.267Z,9.28
2019-03-20T14:15:15.404Z,11.08
2019-03-20T14:17:41.818Z,9.80
2019-03-20T14:20:19.018Z,10.45
2019-03-20T14:22:45.846Z,10.82
2019-03-20T14:25:13.379Z,9.83
2019-03-20T14:27:40.334Z,9.95
2019-03-20T14:30:20.892Z,10.05
2019-03-20T14:32:47.627Z,9.20
2019-03-20T14:35:14.573Z,11.48
2019-03-20T14:37:41.519Z,14.33
2019-03-20T14:40:13.216Z,12.60
2019-03-20T14:42:39.710Z,11.95
2019-03-20T14:45:13.002Z,11.50
2019-03-20T14:47:42.269Z,13.20
2019-03-20T14:50:19.383Z,11.20
2019-03-20T14:52:46.127Z,10.20
2019-03-20T14:55:13.994Z,11.70
2019-03-20T14:57:40.732Z,13.50
2019-03-20T15:00:14.642Z,12.65
2019-03-20T15:02:41.379Z,12.55
2019-03-20T15:05:08.329Z,25.50
2019-03-20T15:07:35.068Z,14.13
2019-03-20T15:10:04.199Z,12.13
2019-03-20T15:12:31.029Z,15.75
2019-03-20T15:14:57.455Z,14.60
2019-03-20T15:17:23.975Z,11.45
2019-03-20T15:19:50.608Z,12.15
2019-03-20T15:22:17.146Z,18.98
2019-03-20T15:24:43.784Z,17.50
2019-03-20T15:27:10.333Z,15.23
2019-03-20T15:29:37.264Z,21.25
2019-03-20T15:32:04.214Z,18.25
2019-03-20T15:34:30.844Z,15.60
2019-03-20T15:36:57.487Z,13.88
2019-03-20T15:39:24.057Z,18.85
2019-03-20T15:41:50.754Z,13.18
2019-03-20T15:44:17.290Z,14.98
2019-03-20T15:46:43.933Z,16.12
2019-03-20T15:49:10.579Z,15.83
2019-03-20T15:51:37.208Z,16.05
2019-03-20T15:54:04.151Z,15.80
2019-03-20T15:56:30.790Z,14.65
2019-03-20T15:58:57.530Z,15.53
2019-03-20T16:01:24.574Z,20.15
2019-03-20T16:03:51.420Z,25.43
2019-03-20T16:06:18.364Z,23.05
2019-03-20T16:08:45.109Z,21.15
2019-03-20T16:11:11.961Z,18.07
2019-03-20T16:13:38.401Z,13.93
2019-03-20T16:16:04.926Z,16.15
2019-03-20T16:18:31.451Z,14.87
2019-03-20T16:20:58.091Z,17.48
2019-03-20T16:23:24.824Z,47.17
2019-03-20T16:25:51.467Z,163.65
2019-03-20T16:28:18.207Z,264.17
2019-03-20T16:30:44.946Z,231.93
2019-03-20T16:33:11.586Z,187.53
2019-03-20T16:35:38.327Z,150.18
2019-03-20T16:38:06.990Z,102.55
2019-03-20T16:40:35.591Z,82.75
2019-03-20T16:43:02.437Z,65.52
2019-03-20T16:45:35.175Z,88.22
2019-03-20T16:48:02.001Z,140.37
2019-03-20T16:50:28.762Z,137.92
2019-03-20T16:52:55.819Z,88.58
2019-03-20T16:55:22.987Z,121.22
2019-03-20T16:57:50.278Z,89.97
2019-03-20T17:00:24.052Z,123.80
2019-03-20T17:02:51.001Z,118.87
2019-03-20T17:05:17.946Z,88.22
2019-03-20T17:07:44.584Z,85.38
2019-03-20T17:10:23.994Z,80.85
2019-03-20T17:12:50.552Z,230.32
2019-03-20T17:15:26.416Z,229.13
2019-03-20T17:17:53.151Z,173.80
2019-03-20T17:20:19.683Z,178.90
2019-03-20T17:22:46.230Z,185.43
2019-03-20T17:25:13.609Z,169.45
2019-03-20T17:27:40.014Z,154.72
2019-03-20T17:30:44.735Z,132.93
2019-03-20T17:33:11.382Z,104.38
2019-03-20T17:35:38.109Z,105.85
2019-03-20T17:38:05.066Z,103.62
2019-03-20T17:40:31.998Z,93.97
2019-03-20T17:42:58.645Z,86.57
2019-03-20T17:45:30.549Z,95.00
2019-03-20T17:47:57.383Z,103.40
2019-03-20T17:50:29.190Z,107.65
2019-03-20T17:52:56.129Z,111.70
2019-03-20T17:55:22.863Z,133.95
2019-03-20T17:57:49.531Z,176.95
2019-03-20T18:00:32.450Z,146.43
2019-03-20T18:02:59.188Z,121.45
2019-03-20T18:05:25.968Z,118.17
2019-03-20T18:07:52.467Z,129.35
2019-03-20T18:10:19.212Z,128.15
2019-03-20T18:12:46.165Z,135.93
2019-03-20T18:15:15.863Z,142.43
2019-03-20T18:17:42.599Z,149.65
2019-03-20T18:20:15.182Z,97.25
2019-03-20T18:22:42.123Z,96.90
2019-03-20T18:25:11.022Z,94.52
2019-03-20T18:27:37.654Z,91.65
2019-03-20T18:30:27.224Z,94.90
2019-03-20T18:32:53.756Z,53.73
2019-03-20T18:35:20.812Z,43.00
2019-03-20T18:37:47.450Z,37.25
2019-03-20T18:40:21.454Z,39.10
2019-03-20T18:42:48.366Z,64.70
2019-03-20T18:45:19.923Z,76.35
2019-03-20T18:47:46.555Z,86.40
2019-03-20T18:50:16.541Z,93.95
2019-03-20T18:52:43.419Z,100.42
2019-03-20T18:55:13.704Z,119.20
2019-03-20T18:57:40.007Z,126.05
2019-03-20T19:00:31.427Z,123.67
2019-03-20T19:03:17.193Z,124.20
2019-03-20T19:06:00.317Z,131.15
2019-03-20T19:08:27.255Z,131.63
2019-03-20T19:10:54.060Z,138.28
2019-03-20T19:13:20.734Z,137.68
2019-03-20T19:15:47.235Z,149.68
2019-03-20T19:18:13.843Z,150.22
2019-03-20T19:20:40.404Z,151.42
2019-03-20T19:23:06.908Z,157.60
2019-03-20T19:25:33.217Z,153.55
2019-03-20T19:27:59.848Z,160.37
2019-03-20T19:30:27.095Z,161.90
2019-03-20T19:32:53.639Z,167.72
2019-03-20T19:35:20.850Z,175.35
2019-03-20T19:37:47.596Z,166.25
2019-03-20T19:40:19.520Z,168.95
2019-03-20T19:42:46.489Z,162.43
2019-03-20T19:45:14.687Z,149.70
2019-03-20T19:47:41.179Z,142.25
2019-03-20T19:50:17.304Z,143.60
2019-03-20T19:52:43.800Z,130.55
2019-03-20T19:55:12.747Z,123.82
2019-03-20T19:57:39.151Z,132.47
2019-03-20T20:00:16.864Z,129.78
2019-03-20T20:02:43.593Z,143.05
2019-03-20T20:05:15.872Z,143.95
2019-03-20T20:07:41.771Z,127.55
2019-03-20T20:10:13.759Z,137.92
2019-03-20T20:12:40.269Z,135.30
2019-03-20T20:15:17.389Z,126.85
2019-03-20T20:17:43.996Z,127.00
2019-03-20T20:20:14.856Z,119.20
2019-03-20T20:22:41.277Z,112.65
2019-03-20T20:25:07.815Z,112.20
2019-03-20T20:27:34.496Z,126.10
2019-03-20T20:30:00.987Z,131.85
2019-03-20T20:32:27.620Z,131.52
2019-03-20T20:34:54.118Z,129.85
2019-03-20T20:37:23.489Z,125.62
2019-03-20T20:39:49.981Z,125.15
2019-03-20T20:42:16.372Z,118.77
2019-03-20T20:44:42.860Z,113.28
2019-03-20T20:47:09.798Z,119.35
2019-03-20T20:49:36.339Z,114.32
2019-03-20T20:52:03.037Z,113.45
2019-03-20T20:54:29.468Z,120.15
2019-03-20T20:56:55.959Z,119.80
2019-03-20T20:59:22.987Z,132.95
2019-03-20T21:01:49.394Z,138.97
2019-03-20T21:04:16.164Z,123.85
2019-03-20T21:06:42.551Z,130.20
2019-03-20T21:09:09.236Z,130.15
2019-03-20T21:11:35.655Z,122.30
2019-03-20T21:14:02.131Z,119.53
2019-03-20T21:16:30.855Z,121.02
2019-03-20T21:19:21.626Z,111.10
2019-03-20T21:22:12.242Z,115.47
2019-03-20T21:24:38.676Z,115.52
2019-03-20T21:27:44.347Z,123.22
2019-03-20T21:30:28.726Z,118.93
2019-03-20T21:33:16.607Z,119.10
2019-03-20T21:36:23.597Z,126.85
2019-03-20T21:38:51.437Z,135.12
2019-03-20T21:41:29.529Z,132.05
2019-03-20T21:44:25.964Z,133.12
2019-03-20T21:47:17.307Z,152.05
2019-03-20T21:49:43.830Z,149.30
2019-03-20T21:52:10.219Z,137.85
2019-03-20T21:54:51.522Z,109.80
2019-03-20T21:57:36.156Z,122.02
2019-03-20T22:00:20.216Z,107.43
2019-03-20T22:02:46.659Z,115.57
2019-03-20T22:05:33.678Z,114.80
2019-03-20T22:08:00.064Z,106.43
2019-03-20T22:10:41.923Z,110.70
2019-03-20T22:13:20.254Z,107.52
2019-03-20T22:16:22.635Z,109.32
2019-03-20T22:19:27.742Z,115.30
2019-03-20T22:22:39.705Z,94.52
2019-03-20T22:25:33.300Z,93.20
2019-03-20T22:28:20.094Z,83.45
2019-03-20T22:30:46.951Z,84.60
2019-03-20T22:33:52.188Z,79.53
2019-03-20T22:36:18.804Z,69.80
2019-03-20T22:39:11.967Z,78.30
2019-03-20T22:41:49.845Z,87.05
2019-03-20T22:44:16.499Z,78.50
2019-03-20T22:47:31.809Z,79.07
2019-03-20T22:50:16.062Z,79.45
2019-03-20T22:53:10.891Z,83.78
2019-03-20T22:56:01.355Z,81.12
2019-03-20T22:58:45.709Z,87.10
2019-03-20T23:01:32.884Z,87.42
2019-03-20T23:04:17.592Z,89.87
2019-03-20T23:06:44.090Z,82.67
2019-03-20T23:09:10.827Z,80.32
2019-03-20T23:11:37.753Z,81.92
2019-03-20T23:14:04.291Z,76.92
2019-03-20T23:16:30.779Z,82.05
2019-03-20T23:18:57.364Z,81.87
2019-03-20T23:21:24.070Z,82.97
2019-03-20T23:23:50.694Z,86.60
2019-03-20T23:26:17.079Z,83.80
2019-03-20T23:28:43.747Z,87.80
2019-03-20T23:31:10.708Z,87.02
2019-03-20T23:33:37.231Z,91.10
2019-03-20T23:36:04.390Z,88.85
2019-03-20T23:38:31.084Z,85.22
2019-03-20T23:40:58.178Z,87.65
2019-03-20T23:43:24.755Z,88.30
2019-03-20T23:45:51.155Z,84.85
2019-03-20T23:48:47.174Z,83.97
2019-03-20T23:51:27.492Z,83.73
2019-03-20T23:53:54.701Z,88.30
2019-03-20T23:56:22.986Z,96.47
2019-03-20T23:58:50.005Z,105.20
